Terminal Aerodrome Forecast
Issued by NWS Cleveland, OH

Home | Current Version | Previous Version | Text Only | Print | Product List | Glossary On
Versions: 1 2 3 4 5 6 7 8 9 10 11 12 13 14 15 16 17 18 19
000
FTUS41 KCLE 231600 AAC
TAFERI
TAF AMD
KERI 231616Z 2316/2412 32011KT P6SM BKN008 OVC015
      TEMPO 2316/2320 5SM -RA BR OVC010
     FM232000 32012KT P6SM OVC015
     FM232300 33012KT P6SM BKN030
     FM240300 35007KT P6SM SCT035=

USA.gov is the U.S. government's official web portal to all federal, state and local government web resources and services.